Almond, New York
Current Conditions -  °F | °C
As of 6:54 AM on Monday 22 Dec 2014 (Local Time) from KDSV Reporting Station
Clear Clear  
Wind Chill: 15°   Ceiling: Unl
Heat Index: 26°   Visibility: 10mi
Dew Point: 19°   Wind: 13mph
Humidity: 75%   Direction: 140°SE
Pressure: 30.24"   Gusts: NA
Location:  42.32°N, 77.74°W
Report Text: KDSV 221154Z AUTO 14011KT 10SM CLR M03/M07 A3024 RMK AO2 SLP256 T10331072 11017 21044 55002
Loading
Personal Weather Stations






























Interactive Weather Map New forecast layout! Learn more

10-Day Weather Forecast

Advertisements
Track Severe Weather on mobile